Lower Island Cove, Canada
Current Conditions -  °F | °C
As of 7:00 AM on Wednesday 22 Oct 2014 (Local Time) from CYYT Reporting Station
Few Clouds Few Clouds  
Wind Chill: 39°   Ceiling: Unl
Heat Index: 39°   Visibility: 15mi
Dew Point: 36°   Wind: 3mph
Humidity: 87%   Direction: 290°WNW
Pressure: 30.35"   Gusts: NA
Location:  48°N, 53°W
Report Text: CYYT 220900Z 29003KT 15SM FEW230 04/02 A3035 RMK CI2 SLP284
Loading
Personal Weather Stations






























Interactive Weather Map
Tropical Storm Tracking
New forecast layout! Learn more

10-Day Weather Forecast

Advertisements
Track Severe Weather on mobile